Terminal Aerodrome Forecast
Issued by NWS

Home | Current Version | Previous Version | Text Only | Print | Product List | Glossary On
Versions: 1 2 3 4 5 6 7 8 9 10 11
000
FTUS42 TJSJ 181738
TAFNCM
TAF
TNCM 181738Z 1818/1918 08016KT P6SM FEW018 SCT030
     FM191300 07019KT P6SM VCSH SCT018 SCT020=

USA.gov is the U.S. government's official web portal to all federal, state and local government web resources and services.